createdAt,value
2023-02-20T00:02:36.948Z,7.8
2023-02-20T00:08:44.768Z,6.9
2023-02-20T00:10:46.496Z,8.3
2023-02-20T00:14:52.649Z,6.8
2023-02-20T00:16:54.371Z,6.5
2023-02-20T00:18:56.133Z,7
2023-02-20T00:25:04.014Z,7.1
2023-02-20T00:29:10.338Z,8.7
2023-02-20T00:31:12.008Z,7.7
2023-02-20T00:33:16.713Z,7.6
2023-02-20T00:35:18.061Z,7.1
2023-02-20T00:39:24.206Z,7.5
2023-02-20T00:48:38.333Z,8.5
2023-02-20T00:50:40.078Z,8.5
2023-02-20T00:52:41.777Z,8.7
2023-02-20T00:54:46.208Z,7
2023-02-20T00:56:47.984Z,8.5
2023-02-20T01:00:54.131Z,9.3
2023-02-20T01:02:55.956Z,10.1
2023-02-20T01:09:03.792Z,9
2023-02-20T01:17:13.466Z,10.1
2023-02-20T01:26:13.496Z,11.1
2023-02-20T01:30:16.664Z,11.3
2023-02-20T01:34:22.878Z,13.1
2023-02-20T01:38:28.970Z,10.3
2023-02-20T01:40:30.725Z,12.2
2023-02-20T01:44:36.912Z,11.5
2023-02-20T01:46:38.688Z,11.5
2023-02-20T01:48:40.366Z,14.2
2023-02-20T01:50:44.797Z,11.7
2023-02-20T01:52:46.535Z,11.1
2023-02-20T01:54:48.268Z,10
2023-02-20T02:06:28.931Z,11.5
2023-02-20T02:08:32.327Z,11.3
2023-02-20T02:10:34.010Z,11.7
2023-02-20T02:22:49.771Z,10.5
2023-02-20T02:24:54.169Z,10.9
2023-02-20T02:26:55.892Z,11.2
2023-02-20T02:41:13.418Z,12.6
2023-02-20T02:53:29.163Z,14.8
2023-02-20T02:58:38.087Z,-1
2023-02-20T03:02:46.649Z,10
2023-02-20T03:09:57.661Z,18.3
2023-02-20T03:11:59.379Z,17.7
2023-02-20T03:18:07.257Z,19.1
2023-02-20T03:24:15.163Z,18.5
2023-02-20T03:26:19.621Z,18.9
2023-02-20T03:28:21.346Z,19.9
2023-02-20T03:30:23.132Z,19.7
2023-02-20T03:32:27.537Z,21.1
2023-02-20T03:34:29.269Z,22.3
2023-02-20T03:38:35.437Z,22
2023-02-20T03:40:37.224Z,20.5
2023-02-20T03:42:38.928Z,21
2023-02-20T03:44:43.384Z,21.4
2023-02-20T03:46:45.130Z,19.6
2023-02-20T03:48:46.882Z,19.2
2023-02-20T04:00:43.728Z,21.3
2023-02-20T04:02:45.483Z,22.2
2023-02-20T04:04:47.221Z,19.9
2023-02-20T04:06:51.647Z,20.5
2023-02-20T04:08:53.413Z,22.1
2023-02-20T04:10:55.290Z,20.4
2023-02-20T04:12:59.623Z,16.1
2023-02-20T04:15:01.362Z,20.3
2023-02-20T04:19:07.574Z,20.8
2023-02-20T04:21:09.363Z,21.8
2023-02-20T04:23:11.083Z,22.6
2023-02-20T04:25:15.558Z,19.6
2023-02-20T04:29:19.061Z,18.8
2023-02-20T04:31:23.561Z,19.7
2023-02-20T04:33:25.293Z,19.2
2023-02-20T04:35:27.040Z,17.4
2023-02-20T04:37:31.475Z,16.4
2023-02-20T04:41:35.019Z,16.9
2023-02-20T04:43:39.470Z,17.5
2023-02-20T04:47:42.998Z,21.2
2023-02-20T04:49:47.461Z,19.7
2023-02-20T04:51:49.245Z,19.2
2023-02-20T04:53:50.986Z,17.6
2023-02-20T04:55:55.436Z,19
2023-02-20T04:57:57.214Z,18.7
2023-02-20T04:59:58.977Z,21.2
2023-02-20T05:02:03.428Z,15
2023-02-20T05:06:07.003Z,20
2023-02-20T05:20:27.479Z,22.2
2023-02-20T05:24:31.036Z,17.5
2023-02-20T05:26:35.514Z,24.3
2023-02-20T05:28:37.283Z,22.5
2023-02-20T05:30:39.121Z,17.3
2023-02-20T05:32:43.534Z,21.5
2023-02-20T05:36:47.081Z,22.8
2023-02-20T05:38:51.552Z,13.6
2023-02-20T05:42:55.018Z,21.2
2023-02-20T05:44:59.487Z,22.6
2023-02-20T05:47:01.288Z,19.1
2023-02-20T05:55:11.122Z,21.2
2023-02-20T05:57:15.588Z,13.5
2023-02-20T05:59:17.371Z,17.1
2023-02-20T06:03:23.616Z,20.3
2023-02-20T06:07:27.190Z,18.4
2023-02-20T06:09:31.674Z,19.1
2023-02-20T06:11:33.450Z,19.8
2023-02-20T06:13:35.241Z,19.3
2023-02-20T06:25:25.444Z,18.1
2023-02-20T06:27:27.227Z,16.2
2023-02-20T06:29:28.916Z,16.6
2023-02-20T06:31:33.429Z,18
2023-02-20T06:33:35.043Z,18.4
2023-02-20T06:35:36.727Z,17.2
2023-02-20T06:37:41.072Z,15.6
2023-02-20T06:53:26.436Z,11.2
2023-02-20T06:57:29.895Z,13.5
2023-02-20T07:03:37.735Z,14.1
2023-02-20T07:09:45.767Z,10.7
2023-02-20T07:22:01.655Z,5.8
2023-02-20T07:26:07.784Z,10.8
2023-02-20T07:28:09.462Z,12.4
2023-02-20T07:32:15.550Z,10.6
2023-02-20T07:34:17.299Z,12.5
2023-02-20T07:36:21.617Z,12.2
2023-02-20T07:42:29.465Z,10.5
2023-02-20T07:48:37.228Z,6.7
2023-02-20T07:58:48.380Z,8
2023-02-20T08:07:00.539Z,6.1
2023-02-20T08:09:02.242Z,9.1
2023-02-20T08:11:09.681Z,8.6
2023-02-20T08:26:49.222Z,10.1
2023-02-20T08:32:57.135Z,8
2023-02-20T08:37:00.422Z,7.4
2023-02-20T08:39:04.904Z,9.2
2023-02-20T08:43:08.602Z,9.2
2023-02-20T08:45:13.017Z,6.3
2023-02-20T08:49:16.511Z,8.9
2023-02-20T08:51:20.990Z,5.6
2023-02-20T08:53:22.807Z,8.2
2023-02-20T08:55:24.494Z,7
2023-02-20T08:57:28.906Z,7.4
2023-02-20T08:59:30.672Z,7.5
2023-02-20T09:01:32.422Z,7.1
2023-02-20T09:03:36.766Z,5.9
2023-02-20T09:05:39.371Z,6.9
2023-02-20T09:07:40.226Z,7.3
2023-02-20T09:13:48.057Z,6.8
2023-02-20T09:15:52.431Z,5.5
2023-02-20T09:17:54.145Z,7.6
2023-02-20T09:19:55.948Z,6.8
2023-02-20T09:22:00.264Z,7.8
2023-02-20T09:24:01.982Z,9.5
2023-02-20T09:26:03.699Z,6.7
2023-02-20T09:37:27.394Z,7.5
2023-02-20T09:41:30.950Z,7.4
2023-02-20T09:43:35.456Z,8.4
2023-02-20T09:45:37.180Z,6.4
2023-02-20T09:47:38.877Z,8
2023-02-20T09:49:43.242Z,8.2
2023-02-20T09:51:44.980Z,8.8
2023-02-20T09:53:46.710Z,8
2023-02-20T09:55:51.101Z,8.1
2023-02-20T09:57:52.853Z,8.3
2023-02-20T09:59:54.639Z,10
2023-02-20T10:01:59.178Z,9.4
2023-02-20T10:06:02.475Z,9.1
2023-02-20T10:08:06.858Z,9.4
2023-02-20T10:12:10.280Z,9.4
2023-02-20T10:16:16.700Z,9
2023-02-20T10:18:18.110Z,7.1
2023-02-20T10:20:22.578Z,8.9
2023-02-20T10:22:24.211Z,9.6
2023-02-20T10:24:25.920Z,8.6
2023-02-20T10:28:32.025Z,10.9
2023-02-20T10:32:38.135Z,10.7
2023-02-20T10:34:39.842Z,8.9
2023-02-20T10:36:41.586Z,8.3
2023-02-20T10:40:47.661Z,9
2023-02-20T10:42:49.381Z,9.4
2023-02-20T10:44:53.758Z,8.7
2023-02-20T10:48:57.236Z,7.7
2023-02-20T10:51:01.615Z,7.4
2023-02-20T10:53:03.362Z,9.8
2023-02-20T10:55:05.108Z,7.8
2023-02-20T10:57:09.610Z,7.7
2023-02-20T10:59:11.217Z,7.5
2023-02-20T11:01:13.063Z,9.4
2023-02-20T11:13:07.240Z,8
2023-02-20T11:15:11.642Z,7.7
2023-02-20T11:17:13.361Z,7.9
2023-02-20T11:19:15.082Z,7.1
2023-02-20T11:21:19.493Z,6.9
2023-02-20T11:25:22.943Z,8.9
2023-02-20T11:29:29.051Z,7.3
2023-02-20T11:31:30.887Z,7.2
2023-02-20T11:33:35.156Z,7.6
2023-02-20T11:35:36.877Z,7
2023-02-20T11:37:52.709Z,10.1
2023-02-20T11:39:42.999Z,8.8
2023-02-20T11:41:44.731Z,8.1
2023-02-20T11:43:59.235Z,8.9
2023-02-20T11:47:52.518Z,10.6
2023-02-20T11:49:55.102Z,9.8
2023-02-20T11:51:59.489Z,9.7
2023-02-20T11:56:02.950Z,9.4
2023-02-20T11:58:07.415Z,9
2023-02-20T12:00:09.101Z,8.6
2023-02-20T12:02:10.772Z,9.1
2023-02-20T12:19:57.776Z,10.1
2023-02-20T12:24:04.066Z,8.6
2023-02-20T12:26:05.799Z,11.3
2023-02-20T12:28:07.675Z,13.2
2023-02-20T12:30:12.260Z,10.3
2023-02-20T12:32:13.887Z,11.7
2023-02-20T12:34:15.544Z,11.8
2023-02-20T12:36:19.952Z,14.7
2023-02-20T12:40:23.448Z,12.9
2023-02-20T12:42:27.867Z,15.1
2023-02-20T12:44:29.579Z,13.9
2023-02-20T12:46:31.338Z,13.2
2023-02-20T12:48:35.738Z,13.3
2023-02-20T12:50:37.461Z,14.9
2023-02-20T12:52:39.216Z,15.2
2023-02-20T12:54:43.654Z,14.6
2023-02-20T12:56:45.509Z,14.8
2023-02-20T12:58:47.201Z,15
2023-02-20T13:05:52.943Z,16.1
2023-02-20T13:07:54.652Z,15.8
2023-02-20T13:09:59.056Z,15.6
2023-02-20T13:16:06.965Z,16.9
2023-02-20T13:22:31.683Z,16.6
2023-02-20T13:24:33.402Z,15.7
2023-02-20T13:26:35.154Z,18.8
2023-02-20T13:28:40.384Z,17.3
2023-02-20T13:30:42.121Z,16.2
2023-02-20T13:32:43.879Z,14.8
2023-02-20T13:34:45.596Z,17.4
2023-02-20T13:36:47.344Z,15.7
2023-02-20T13:40:50.780Z,17.3
2023-02-20T13:42:56.012Z,17.3
2023-02-20T13:44:57.764Z,17.9
2023-02-20T13:46:59.705Z,16.6
2023-02-20T13:49:01.221Z,13.7
2023-02-20T13:51:03.012Z,15.2
2023-02-20T13:53:04.745Z,16.5
2023-02-20T13:57:11.688Z,16.6
2023-02-20T14:01:15.201Z,15.9
2023-02-20T14:03:16.935Z,14
2023-02-20T14:11:27.421Z,15.4
2023-02-20T14:15:30.884Z,13.7
2023-02-20T14:16:33.577Z,13.8
2023-02-20T14:18:35.323Z,14.8
2023-02-20T14:20:37.003Z,12.6
2023-02-20T14:24:43.958Z,14.3
2023-02-20T14:26:45.661Z,13
2023-02-20T14:28:47.451Z,12.6
2023-02-20T14:30:49.183Z,14.9
2023-02-20T14:32:51.130Z,15.9
2023-02-20T14:34:52.687Z,15.2
2023-02-20T14:36:54.441Z,14.4
2023-02-20T14:38:59.671Z,13.8
2023-02-20T14:41:01.549Z,13.4
2023-02-20T14:43:03.214Z,16.5
2023-02-20T14:45:04.903Z,15.4
2023-02-20T14:47:06.636Z,14.1
2023-02-20T14:49:08.405Z,14.6
2023-02-20T14:51:10.136Z,14.8
2023-02-20T14:53:15.363Z,14.9
2023-02-20T14:55:17.139Z,15.2
2023-02-20T15:03:29.802Z,17.2
2023-02-20T15:05:25.759Z,18.5
2023-02-20T15:07:30.979Z,19.2
2023-02-20T15:09:32.720Z,16.7
2023-02-20T15:11:34.465Z,18.6
2023-02-20T15:12:37.067Z,18.6
2023-02-20T15:14:38.787Z,17.7
2023-02-20T15:16:40.590Z,21
2023-02-20T15:18:42.269Z,21.6
2023-02-20T15:20:47.513Z,21
2023-02-20T15:22:49.271Z,21.8
2023-02-20T15:24:50.986Z,22.7
2023-02-20T15:28:54.484Z,19.1
2023-02-20T15:30:56.348Z,21.4
2023-02-20T15:32:57.962Z,19.3
2023-02-20T15:35:03.186Z,19.5
2023-02-20T15:37:04.958Z,19.4
2023-02-20T15:39:06.638Z,19
2023-02-20T15:41:08.402Z,19.3
2023-02-20T15:43:24.069Z,17.1
2023-02-20T15:45:11.874Z,18.3
2023-02-20T15:47:13.592Z,15.7
2023-02-20T15:49:20.838Z,18
2023-02-20T15:51:20.615Z,19.2
2023-02-20T15:53:22.210Z,14.1
2023-02-20T15:55:23.935Z,17
2023-02-20T15:57:25.636Z,16.6
2023-02-20T15:59:27.384Z,18.4
2023-02-20T16:03:49.275Z,16.5
2023-02-20T16:08:40.364Z,18
2023-02-20T16:10:42.091Z,16.7
2023-02-20T16:12:43.828Z,19.5
2023-02-20T16:14:45.598Z,21.9
2023-02-20T16:16:50.818Z,20.9
2023-02-20T16:18:52.534Z,19.1
2023-02-20T16:20:54.442Z,18
2023-02-20T16:22:56.003Z,21.6
2023-02-20T16:24:57.711Z,19.5
2023-02-20T16:26:59.528Z,20.1
2023-02-20T16:29:01.231Z,19.6
2023-02-20T16:33:08.154Z,21.7
2023-02-20T16:35:09.868Z,22.1
2023-02-20T16:37:11.609Z,22.8
2023-02-20T16:39:24.633Z,25.1
2023-02-20T16:41:15.343Z,23.6
2023-02-20T16:47:23.789Z,22.3
2023-02-20T16:49:25.455Z,23
2023-02-20T16:51:27.170Z,21.6
2023-02-20T16:53:28.876Z,24.8
2023-02-20T17:03:41.059Z,17.3
2023-02-20T17:05:45.445Z,18.2
2023-02-20T17:07:47.182Z,20.1
2023-02-20T17:09:48.935Z,20.4
2023-02-20T17:21:43.787Z,22
2023-02-20T17:23:48.144Z,23.9
2023-02-20T17:29:56.013Z,21.8
2023-02-20T17:33:59.494Z,23.8
2023-02-20T17:45:48.654Z,16.2
2023-02-20T17:47:50.372Z,20.1
2023-02-20T17:51:56.528Z,21.2
2023-02-20T17:55:59.953Z,18.7
2023-02-20T17:58:04.358Z,19.9
2023-02-20T18:00:06.089Z,22
2023-02-20T18:02:07.830Z,25.7
2023-02-20T18:06:14.298Z,22.9
2023-02-20T18:08:15.735Z,22.1
2023-02-20T18:10:20.052Z,21.8
2023-02-20T18:14:23.516Z,23.1
2023-02-20T18:16:27.961Z,21.7
2023-02-20T18:18:29.686Z,24.3
2023-02-20T18:22:35.754Z,22.1
2023-02-20T18:28:43.609Z,22.7
2023-02-20T18:32:47.209Z,22.2
2023-02-20T18:38:55.053Z,22.3
2023-02-20T18:47:55.094Z,24.9
2023-02-20T18:49:56.874Z,24.5
2023-02-20T18:51:58.668Z,23.8
2023-02-20T18:54:03.170Z,26.5
2023-02-20T18:56:04.965Z,25.4
2023-02-20T18:58:06.814Z,27.2
2023-02-20T19:04:14.687Z,18
2023-02-20T19:09:22.135Z,19
2023-02-20T19:11:23.844Z,25.2
2023-02-20T19:13:25.557Z,24.7
2023-02-20T19:23:39.457Z,21.6
2023-02-20T19:25:42.715Z,26.4
2023-02-20T19:27:45.677Z,26.8
2023-02-20T19:29:47.466Z,21.7
2023-02-20T19:31:49.360Z,18.4
2023-02-20T19:33:53.750Z,23.9
2023-02-20T19:35:55.548Z,24
2023-02-20T19:37:57.260Z,23.8
2023-02-20T19:40:01.681Z,23.9
2023-02-20T19:42:03.363Z,21.8
2023-02-20T19:44:05.082Z,24.9
2023-02-20T19:46:09.525Z,17.8
2023-02-20T19:50:12.883Z,23.9
2023-02-20T19:56:20.979Z,25.7
2023-02-20T19:58:25.467Z,22.7
2023-02-20T20:02:29.067Z,24.8
2023-02-20T20:08:40.251Z,24.8
2023-02-20T20:10:41.485Z,19.1
2023-02-20T20:14:44.901Z,20
2023-02-20T20:21:59.998Z,24.7
2023-02-20T20:24:01.800Z,19.2
2023-02-20T20:26:06.206Z,25.7
2023-02-20T20:28:07.991Z,18.6
2023-02-20T20:32:14.232Z,23.2
2023-02-20T20:36:17.664Z,26.9
2023-02-20T20:38:28.138Z,23.7
2023-02-20T20:48:39.429Z,22.4
2023-02-20T20:50:43.793Z,25.4
2023-02-20T20:52:45.551Z,24.2
2023-02-20T20:54:47.267Z,23.7
2023-02-20T20:58:53.376Z,26.4
2023-02-20T21:00:55.159Z,25.3
2023-02-20T21:02:59.727Z,21.9
2023-02-20T21:05:10.329Z,26.6
2023-02-20T21:07:03.181Z,26
2023-02-20T21:09:07.670Z,28
2023-02-20T21:11:09.585Z,25.2
2023-02-20T21:17:17.376Z,29.6
2023-02-20T21:19:19.191Z,28.6
2023-02-20T21:26:24.285Z,28.5
2023-02-20T21:28:26.088Z,31.7
2023-02-20T21:30:30.513Z,33.4
2023-02-20T21:32:32.304Z,30.6
2023-02-20T21:34:34.083Z,30.9
2023-02-20T21:36:38.564Z,33.2
2023-02-20T21:44:48.100Z,34.8
2023-02-20T21:48:54.210Z,34.4
2023-02-20T21:50:55.931Z,31.3
2023-02-20T21:52:57.683Z,35.6
2023-02-20T21:55:02.081Z,31.3
2023-02-20T21:57:03.801Z,34.9
2023-02-20T21:59:06.402Z,34.3
2023-02-20T22:06:14.095Z,33.6
2023-02-20T22:08:15.861Z,31.5
2023-02-20T22:21:37.777Z,35
2023-02-20T22:23:39.533Z,36.9
2023-02-20T22:25:43.927Z,35.6
2023-02-20T22:27:45.627Z,34.8
2023-02-20T22:29:47.357Z,35
2023-02-20T22:35:55.212Z,38.6
2023-02-20T22:37:59.570Z,34.9
2023-02-20T22:53:19.746Z,37.3
2023-02-20T22:57:23.152Z,37.8
2023-02-20T23:01:29.258Z,38.1
2023-02-20T23:05:35.370Z,30.8
2023-02-20T23:07:37.100Z,33.9
2023-02-20T23:09:38.831Z,35.8
2023-02-20T23:13:46.160Z,34.2
2023-02-20T23:15:46.635Z,32.3
2023-02-20T23:17:51.042Z,35.3
2023-02-20T23:19:52.756Z,31.4
2023-02-20T23:21:54.467Z,33.5
2023-02-20T23:23:59.034Z,30.7
2023-02-20T23:26:00.710Z,34.1
2023-02-20T23:28:02.420Z,36.3
2023-02-20T23:30:06.843Z,32.3
2023-02-20T23:32:08.617Z,29.5
2023-02-20T23:34:10.262Z,28.5
2023-02-20T23:36:14.668Z,28.2
2023-02-20T23:38:16.414Z,29.7
2023-02-20T23:40:24.045Z,26.9
2023-02-20T23:42:28.733Z,32.7
2023-02-20T23:44:30.468Z,28.1
2023-02-20T23:46:32.183Z,28.7
2023-02-20T23:57:45.417Z,27.5
2023-02-20T23:59:47.065Z,26.5
